createdAt,value
2023-03-29T00:00:47.279Z,0.80
2023-03-29T00:03:17.258Z,0.60
2023-03-29T00:05:44.909Z,0.80
2023-03-29T00:08:14.766Z,0.75
2023-03-29T00:10:43.877Z,0.50
2023-03-29T00:13:12.967Z,0.57
2023-03-29T00:15:44.331Z,0.80
2023-03-29T00:18:15.936Z,0.60
2023-03-29T00:20:53.853Z,0.65
2023-03-29T00:23:20.395Z,0.85
2023-03-29T00:25:46.971Z,1.08
2023-03-29T00:28:14.730Z,0.80
2023-03-29T00:30:41.488Z,0.95
2023-03-29T00:33:08.657Z,0.80
2023-03-29T00:35:38.596Z,1.05
2023-03-29T00:38:08.292Z,0.75
2023-03-29T00:40:42.323Z,0.65
2023-03-29T00:43:15.932Z,1.08
2023-03-29T00:45:42.549Z,0.85
2023-03-29T00:48:15.874Z,1.00
2023-03-29T00:51:19.015Z,0.82
2023-03-29T00:53:59.063Z,1.25
2023-03-29T00:56:41.785Z,1.00
2023-03-29T00:59:38.185Z,0.90
2023-03-29T01:02:10.688Z,0.63
2023-03-29T01:04:45.638Z,0.90
2023-03-29T01:07:21.745Z,1.05
2023-03-29T01:09:56.000Z,0.90
2023-03-29T01:12:30.046Z,1.15
2023-03-29T01:15:02.529Z,1.08
2023-03-29T01:17:31.695Z,1.05
2023-03-29T01:20:19.151Z,0.90
2023-03-29T01:22:49.076Z,1.00
2023-03-29T01:26:00.217Z,0.90
2023-03-29T01:28:45.873Z,1.13
2023-03-29T01:31:21.962Z,0.82
2023-03-29T01:34:00.461Z,0.80
2023-03-29T01:36:38.265Z,1.15
2023-03-29T01:39:07.077Z,1.08
2023-03-29T01:42:05.626Z,1.55
2023-03-29T01:44:47.395Z,0.90
2023-03-29T01:47:32.500Z,0.63
2023-03-29T01:49:59.219Z,0.93
2023-03-29T01:52:37.604Z,0.82
2023-03-29T01:55:14.858Z,0.80
2023-03-29T01:57:48.575Z,0.65
2023-03-29T02:00:19.212Z,0.80
2023-03-29T02:02:50.422Z,0.80
2023-03-29T02:05:22.458Z,0.80
2023-03-29T02:07:52.998Z,0.85
2023-03-29T02:10:21.424Z,1.10
2023-03-29T02:12:48.236Z,0.90
2023-03-29T02:15:21.468Z,0.93
2023-03-29T02:17:49.496Z,0.93
2023-03-29T02:20:20.570Z,1.30
2023-03-29T02:22:52.206Z,0.85
2023-03-29T02:25:22.531Z,0.75
2023-03-29T02:27:49.501Z,1.08
2023-03-29T02:30:18.797Z,1.20
2023-03-29T02:32:52.360Z,1.10
2023-03-29T02:35:34.364Z,1.15
2023-03-29T02:38:06.456Z,1.05
2023-03-29T02:40:37.687Z,0.93
2023-03-29T02:43:07.725Z,0.90
2023-03-29T02:45:39.947Z,0.95
2023-03-29T02:48:12.842Z,0.63
2023-03-29T02:50:44.963Z,1.20
2023-03-29T02:53:24.208Z,0.95
2023-03-29T02:55:51.762Z,0.85
2023-03-29T02:58:20.642Z,0.93
2023-03-29T03:00:49.057Z,1.05
2023-03-29T03:03:15.889Z,1.05
2023-03-29T03:05:47.754Z,0.63
2023-03-29T03:08:14.524Z,0.65
2023-03-29T03:10:41.453Z,1.00
2023-03-29T03:13:12.895Z,1.13
2023-03-29T03:15:42.970Z,1.23
2023-03-29T03:18:10.642Z,1.27
2023-03-29T03:20:37.306Z,1.25
2023-03-29T03:23:08.978Z,1.50
2023-03-29T03:25:38.186Z,1.42
2023-03-29T03:28:05.096Z,1.42
2023-03-29T03:30:31.734Z,1.65
2023-03-29T03:32:58.318Z,1.65
2023-03-29T03:35:25.295Z,1.27
2023-03-29T03:37:54.195Z,1.55
2023-03-29T03:40:20.871Z,1.83
2023-03-29T03:42:50.022Z,1.45
2023-03-29T03:45:16.725Z,1.30
2023-03-29T03:47:48.670Z,1.23
2023-03-29T03:50:15.482Z,1.60
2023-03-29T03:52:44.850Z,1.75
2023-03-29T03:55:12.114Z,1.20
2023-03-29T03:57:38.659Z,1.52
2023-03-29T04:00:21.069Z,1.20
2023-03-29T04:02:48.544Z,1.75
2023-03-29T04:05:20.534Z,1.80
2023-03-29T04:07:52.606Z,2.25
2023-03-29T04:10:19.292Z,2.70
2023-03-29T04:12:46.009Z,3.05
2023-03-29T04:15:17.871Z,3.22
2023-03-29T04:17:47.490Z,2.88
2023-03-29T04:20:18.809Z,2.42
2023-03-29T04:22:45.380Z,3.05
2023-03-29T04:25:14.445Z,2.00
2023-03-29T04:27:44.796Z,2.88
2023-03-29T04:30:12.318Z,2.58
2023-03-29T04:32:38.928Z,3.33
2023-03-29T04:35:06.157Z,2.17
2023-03-29T04:37:35.198Z,2.92
2023-03-29T04:40:02.535Z,3.28
2023-03-29T04:42:29.454Z,2.50
2023-03-29T04:44:58.552Z,2.83
2023-03-29T04:47:25.236Z,2.88
2023-03-29T04:49:51.824Z,2.78
2023-03-29T04:52:18.402Z,3.72
2023-03-29T04:54:47.511Z,3.17
2023-03-29T04:57:17.101Z,3.38
2023-03-29T04:59:46.462Z,3.28
2023-03-29T05:02:15.607Z,3.25
2023-03-29T05:04:42.216Z,2.70
2023-03-29T05:07:08.872Z,3.22
2023-03-29T05:09:35.671Z,2.72
2023-03-29T05:12:04.981Z,3.08
2023-03-29T05:14:31.564Z,2.58
2023-03-29T07:25:48.305Z,0.82
2023-03-29T07:28:17.582Z,0.80
2023-03-29T07:30:44.200Z,1.00
2023-03-29T07:33:10.854Z,0.85
2023-03-29T07:35:38.333Z,1.10
2023-03-29T07:38:05.665Z,0.90
2023-03-29T07:40:34.622Z,0.90
2023-03-29T07:43:09.111Z,0.82
2023-03-29T07:45:42.360Z,1.35
2023-03-29T07:48:11.430Z,1.63
2023-03-29T07:50:40.363Z,1.10
2023-03-29T07:53:09.107Z,1.23
2023-03-29T07:55:35.978Z,1.65
2023-03-29T07:58:03.588Z,1.35
2023-03-29T08:00:33.172Z,1.20
2023-03-29T08:03:03.790Z,1.10
2023-03-29T08:05:41.192Z,0.93
2023-03-29T08:08:11.277Z,0.95
2023-03-29T08:13:22.714Z,1.25
2023-03-29T08:15:50.318Z,1.40
2023-03-29T08:18:17.188Z,1.52
2023-03-29T08:20:46.070Z,1.02
2023-03-29T08:23:14.865Z,1.02
2023-03-29T08:25:49.859Z,0.68
2023-03-29T08:28:19.097Z,0.90
2023-03-29T08:30:48.205Z,1.00
2023-03-29T08:33:26.128Z,1.00
2023-03-29T08:35:53.174Z,1.33
2023-03-29T08:38:19.942Z,0.95
2023-03-29T08:40:48.835Z,1.05
2023-03-29T08:43:42.747Z,0.77
2023-03-29T08:46:15.773Z,0.90
2023-03-29T08:48:51.380Z,0.90
2023-03-29T08:51:23.105Z,0.90
2023-03-29T08:53:56.573Z,0.80
2023-03-29T08:56:28.069Z,0.90
2023-03-29T08:58:59.363Z,1.00
2023-03-29T09:01:38.329Z,1.27
2023-03-29T09:04:23.787Z,0.80
2023-03-29T09:06:51.779Z,0.75
2023-03-29T10:10:11.315Z,1.15
2023-03-29T10:12:38.039Z,1.25
2023-03-29T10:15:30.428Z,1.17
2023-03-29T10:18:07.476Z,1.08
2023-03-29T10:20:39.952Z,1.08
2023-03-29T10:23:10.870Z,1.00
2023-03-29T10:25:45.521Z,1.02
2023-03-29T10:28:21.214Z,1.10
2023-03-29T10:30:57.138Z,0.90
2023-03-29T10:33:29.730Z,1.20
2023-03-29T10:35:57.679Z,1.08
2023-03-29T10:38:28.002Z,1.10
2023-03-29T10:41:05.382Z,1.10
2023-03-29T10:43:41.855Z,0.85
2023-03-29T10:46:19.722Z,1.60
2023-03-29T10:48:51.991Z,0.95
2023-03-29T10:51:19.381Z,1.30
2023-03-29T10:53:46.654Z,1.25
2023-03-29T10:56:42.191Z,1.27
2023-03-29T10:59:17.985Z,1.50
2023-03-29T11:01:51.674Z,1.20
2023-03-29T11:04:46.500Z,1.00
2023-03-29T11:07:31.636Z,1.33
2023-03-29T11:10:24.717Z,1.08
2023-03-29T11:12:57.552Z,1.27
2023-03-29T11:15:55.122Z,1.33
2023-03-29T11:18:30.588Z,1.23
2023-03-29T13:12:43.679Z,1.73
2023-03-29T13:15:19.465Z,1.65
2023-03-29T13:17:52.245Z,1.67
2023-03-29T13:20:40.625Z,1.83
2023-03-29T13:23:19.245Z,1.75
2023-03-29T13:26:01.408Z,1.80
2023-03-29T13:28:33.165Z,2.10
2023-03-29T13:31:24.463Z,2.03
2023-03-29T18:40:56.160Z,2.30
2023-03-29T18:43:22.750Z,1.95
2023-03-29T18:45:53.981Z,2.08
2023-03-29T18:48:20.624Z,1.98
2023-03-29T18:50:47.216Z,1.73
2023-03-29T18:53:14.431Z,1.52
2023-03-29T18:55:44.988Z,2.10
2023-03-29T18:58:15.989Z,1.70
2023-03-29T19:00:42.920Z,1.70
2023-03-29T19:03:09.840Z,1.70
2023-03-29T19:05:39.987Z,2.42
2023-03-29T19:08:08.550Z,2.47
2023-03-29T19:10:39.262Z,1.77
2023-03-29T19:13:08.837Z,2.47
2023-03-29T19:15:40.432Z,2.50
2023-03-29T19:18:07.967Z,2.20
2023-03-29T19:20:40.846Z,2.38
2023-03-29T19:23:07.444Z,2.28
2023-03-29T19:25:36.545Z,2.20
2023-03-29T19:28:04.934Z,2.10
2023-03-29T19:30:34.844Z,1.77
2023-03-29T19:33:06.403Z,1.75
2023-03-29T19:35:33.032Z,1.50
2023-03-29T19:37:59.680Z,1.73
2023-03-29T19:40:28.524Z,1.52
2023-03-29T19:42:55.085Z,1.63
2023-03-29T19:45:23.888Z,2.08
2023-03-29T19:47:57.727Z,1.83
2023-03-29T19:50:27.675Z,1.30
2023-03-29T19:52:54.563Z,1.50
2023-03-29T19:55:21.809Z,1.52
2023-03-29T19:57:53.426Z,1.15
2023-03-29T20:00:24.433Z,1.27
2023-03-29T20:02:52.572Z,1.75
2023-03-29T20:05:21.625Z,1.10
2023-03-29T20:07:54.370Z,1.33
2023-03-29T20:10:21.212Z,1.33
2023-03-29T20:12:47.902Z,1.15
2023-03-29T20:15:16.953Z,1.05
2023-03-29T20:17:43.566Z,1.30
2023-03-29T20:20:11.998Z,1.38
2023-03-29T20:22:42.075Z,1.25
2023-03-29T20:25:11.952Z,1.42
2023-03-29T20:27:42.774Z,1.20
2023-03-29T20:30:16.472Z,1.30
2023-03-29T20:32:45.405Z,1.52
2023-03-29T20:35:12.260Z,1.48
2023-03-29T20:37:43.359Z,1.55
2023-03-29T20:40:11.255Z,1.02
2023-03-29T20:42:38.741Z,1.13
2023-03-29T20:45:06.618Z,1.33
2023-03-29T20:47:33.264Z,1.25
2023-03-29T20:50:04.134Z,1.23
2023-03-29T20:52:30.744Z,1.60
2023-03-29T20:55:01.860Z,1.92
2023-03-29T20:57:30.319Z,2.45
2023-03-29T20:59:59.401Z,2.30
2023-03-29T21:02:26.323Z,2.42
2023-03-29T21:05:00.187Z,2.55
2023-03-29T21:07:26.839Z,2.83
2023-03-29T21:09:54.160Z,2.53
2023-03-29T21:12:20.835Z,2.78
2023-03-29T21:14:49.716Z,2.95
2023-03-29T21:17:16.382Z,2.85
2023-03-29T21:19:42.903Z,3.80
2023-03-29T21:22:09.486Z,3.83
2023-03-29T21:24:38.558Z,3.88
2023-03-29T21:27:08.450Z,3.83
2023-03-29T21:29:37.235Z,4.47
2023-03-29T21:32:04.602Z,3.70
2023-03-29T21:34:33.656Z,4.00
2023-03-29T21:37:00.515Z,3.28
2023-03-29T21:39:27.805Z,3.75
2023-03-29T21:41:54.434Z,3.53
2023-03-29T21:44:21.049Z,4.35
2023-03-29T21:46:49.868Z,4.15
2023-03-29T21:49:19.454Z,3.58
2023-03-29T21:51:46.447Z,4.32
2023-03-29T21:54:15.577Z,3.85
2023-03-29T21:56:42.493Z,4.35
2023-03-29T21:59:09.100Z,4.40
2023-03-29T22:01:35.711Z,3.90
2023-03-29T22:04:05.186Z,3.72
2023-03-29T22:06:34.113Z,3.30
2023-03-29T22:09:06.384Z,3.58
2023-03-29T22:11:34.677Z,3.65
2023-03-29T22:14:04.121Z,3.30
2023-03-29T22:16:31.412Z,3.20
2023-03-29T22:18:58.262Z,3.28
2023-03-29T22:21:27.138Z,3.38
2023-03-29T22:23:58.519Z,3.85
2023-03-29T22:26:32.779Z,3.70
2023-03-29T22:29:00.410Z,2.88
2023-03-29T22:31:28.643Z,3.22
2023-03-29T22:33:55.782Z,2.85
2023-03-29T22:36:27.674Z,2.90
2023-03-29T22:38:55.065Z,2.90
2023-03-29T22:41:23.751Z,2.60
2023-03-29T22:43:53.947Z,2.97
2023-03-29T22:46:25.444Z,3.17
2023-03-29T22:48:54.399Z,3.00
2023-03-29T22:51:21.483Z,2.58
2023-03-29T22:53:48.096Z,2.60
2023-03-29T22:56:17.814Z,2.30
2023-03-29T22:58:46.903Z,2.25
2023-03-29T23:01:15.820Z,2.20
2023-03-29T23:03:42.447Z,2.17
2023-03-29T23:06:09.250Z,2.58
2023-03-29T23:08:38.374Z,2.33
2023-03-29T23:11:07.560Z,2.88
2023-03-29T23:16:03.839Z,2.85
2023-03-29T23:18:34.950Z,2.47
2023-03-29T23:21:02.461Z,2.95
2023-03-29T23:23:31.917Z,2.50
2023-03-29T23:28:34.547Z,2.50
2023-03-29T23:31:11.768Z,2.15
2023-03-29T23:33:41.257Z,2.05
2023-03-29T23:36:12.969Z,2.72
2023-03-29T23:38:43.542Z,2.88
2023-03-29T23:41:13.753Z,2.80
2023-03-29T23:43:42.478Z,2.45
2023-03-29T23:46:10.762Z,2.85
2023-03-29T23:48:42.286Z,3.00
2023-03-29T23:51:09.849Z,3.08
2023-03-29T23:53:38.848Z,2.67
2023-03-29T23:56:06.123Z,2.58
2023-03-29T23:58:35.994Z,2.58
